Checotah, Oklahoma
Current Conditions -  °F | °C
As of 12:53 PM on Friday 31 Oct 2014 (Local Time) from KMKO Reporting Station
Clear Clear  
Wind Chill: 55°   Ceiling: Unl
Heat Index: 55°   Visibility: 10mi
Dew Point: 38°   Wind: 18mph
Humidity: 53%   Direction: 360°N
Pressure: 30.39"   Gusts: 28mph
Location:  35.47°N, 95.52°W
Report Text: KMKO 311753Z AUTO 36016G24KT 10SM CLR 13/03 A3039 RMK AO2 RAB04E15 SLP290 P0000 60000 T01280033 10128 20089 $
Loading
Personal Weather Stations






























Interactive Weather Map
Tropical Storm Tracking
New forecast layout! Learn more

10-Day Weather Forecast

Advertisements
Track Severe Weather on mobile